createdAt,value
2023-03-04T00:00:59.617Z,67.50
2023-03-04T00:03:31.092Z,71.00
2023-03-04T00:06:02.080Z,67.90
2023-03-04T00:08:33.329Z,56.50
2023-03-04T00:11:04.184Z,67.60
2023-03-04T00:13:35.399Z,59.20
2023-03-04T00:16:06.822Z,64.80
2023-03-04T00:18:38.240Z,64.20
2023-03-04T00:21:09.035Z,60.90
2023-03-04T00:23:41.714Z,58.00
2023-03-04T00:26:13.487Z,60.40
2023-03-04T00:28:46.761Z,55.20
2023-03-04T00:31:17.433Z,60.40
2023-03-04T00:33:49.057Z,64.70
2023-03-04T00:36:19.701Z,60.00
2023-03-04T00:38:51.021Z,62.50
2023-03-04T00:41:21.607Z,55.70
2023-03-04T00:43:53.116Z,56.20
2023-03-04T00:46:23.990Z,59.00
2023-03-04T00:48:56.217Z,62.30
2023-03-04T00:51:26.760Z,60.80
2023-03-04T00:54:00.691Z,59.00
2023-03-04T00:56:31.818Z,51.90
2023-03-04T00:59:03.245Z,61.30
2023-03-04T01:01:33.832Z,56.10
2023-03-04T01:04:05.318Z,58.30
2023-03-04T01:06:36.886Z,57.10
2023-03-04T01:09:08.918Z,59.40
2023-03-04T01:11:39.854Z,65.60
2023-03-04T01:14:11.132Z,60.10
2023-03-04T01:16:41.851Z,57.20
2023-03-04T01:19:13.219Z,56.00
2023-03-04T01:21:43.725Z,61.50
2023-03-04T01:24:14.993Z,52.70
2023-03-04T01:26:45.602Z,54.00
2023-03-04T01:29:17.203Z,52.70
2023-03-04T01:31:47.783Z,50.00
2023-03-04T01:34:19.144Z,47.80
2023-03-04T01:36:50.398Z,36.50
2023-03-04T01:39:23.160Z,56.70
2023-03-04T01:41:55.128Z,54.20
2023-03-04T01:44:28.106Z,56.80
2023-03-04T01:49:29.371Z,48.80
2023-03-04T01:52:00.009Z,51.00
2023-03-04T01:54:31.666Z,52.50
2023-03-04T01:57:02.506Z,48.50
2023-03-04T01:59:34.046Z,51.50
2023-03-04T02:02:04.593Z,48.50
2023-03-04T02:04:36.214Z,53.20
2023-03-04T02:07:07.176Z,52.10
2023-03-04T02:09:38.558Z,50.80
2023-03-04T02:12:09.371Z,41.50
2023-03-04T02:14:41.430Z,40.60
2023-03-04T02:17:13.353Z,46.50
2023-03-04T02:19:50.712Z,46.30
2023-03-04T02:22:21.312Z,51.20
2023-03-04T02:24:54.755Z,40.40
2023-03-04T02:27:25.732Z,44.80
2023-03-04T02:29:57.021Z,42.10
2023-03-04T02:32:27.637Z,43.50
2023-03-04T02:34:59.189Z,44.10
2023-03-04T02:37:29.794Z,38.30
2023-03-04T02:40:01.691Z,47.80
2023-03-04T02:42:32.217Z,49.30
2023-03-04T02:45:03.505Z,43.50
2023-03-04T02:47:34.065Z,47.60
2023-03-04T02:50:05.542Z,35.00
2023-03-04T02:52:36.237Z,38.00
2023-03-04T02:55:08.977Z,39.30
2023-03-04T02:57:39.550Z,39.60
2023-03-04T03:00:12.073Z,40.20
2023-03-04T03:05:13.922Z,33.80
2023-03-04T03:07:44.633Z,31.80
2023-03-04T03:10:15.985Z,37.20
2023-03-04T03:12:46.725Z,35.60
2023-03-04T03:15:17.783Z,43.40
2023-03-04T03:17:48.546Z,39.00
2023-03-04T03:20:20.182Z,41.80
2023-03-04T03:22:50.888Z,35.20
2023-03-04T03:25:22.022Z,39.20
2023-03-04T03:27:52.750Z,36.20
2023-03-04T03:30:23.969Z,42.60
2023-03-04T03:32:54.522Z,40.00
2023-03-04T03:35:25.789Z,38.90
2023-03-04T03:37:56.302Z,40.80
2023-03-04T03:40:27.754Z,36.70
2023-03-04T03:42:58.256Z,40.50
2023-03-04T03:45:29.245Z,42.20
2023-03-04T03:47:59.955Z,32.30
2023-03-04T03:50:31.467Z,37.40
2023-03-04T03:53:02.042Z,42.70
2023-03-04T03:55:33.655Z,37.40
2023-03-04T03:58:04.310Z,36.90
2023-03-04T04:00:35.670Z,39.00
2023-03-04T04:03:06.420Z,39.20
2023-03-04T04:05:37.535Z,36.40
2023-03-04T04:08:08.272Z,44.30
2023-03-04T04:10:39.723Z,40.10
2023-03-04T04:13:10.762Z,37.50
2023-03-04T04:15:42.063Z,40.70
2023-03-04T04:18:12.740Z,40.70
2023-03-04T04:20:43.886Z,39.20
2023-03-04T04:23:14.412Z,46.10
2023-03-04T04:25:45.758Z,49.10
2023-03-04T04:28:16.292Z,43.10
2023-03-04T04:30:47.527Z,45.50
2023-03-04T04:33:18.075Z,43.90
2023-03-04T04:35:49.301Z,42.20
2023-03-04T04:38:20.011Z,42.80
2023-03-04T04:40:51.499Z,45.90
2023-03-04T04:43:22.021Z,46.50
2023-03-04T04:45:53.648Z,42.80
2023-03-04T04:48:24.413Z,47.90
2023-03-04T04:50:57.540Z,51.10
2023-03-04T04:53:28.129Z,47.20
2023-03-04T04:55:59.399Z,47.50
2023-03-04T04:58:29.831Z,47.30
2023-03-04T05:01:00.972Z,51.60
2023-03-04T05:03:32.007Z,48.70
2023-03-04T05:06:03.372Z,49.00
2023-03-04T05:08:34.125Z,47.70
2023-03-04T05:11:05.741Z,50.10
2023-03-04T05:13:36.560Z,46.60
2023-03-04T05:16:09.214Z,50.30
2023-03-04T05:18:39.764Z,45.70
2023-03-04T05:21:11.927Z,51.40
2023-03-04T05:23:43.139Z,48.60
2023-03-04T05:26:16.060Z,53.30
2023-03-04T05:28:46.891Z,55.20
2023-03-04T05:31:18.366Z,53.00
2023-03-04T05:33:48.976Z,49.80
2023-03-04T05:36:22.984Z,54.60
2023-03-04T05:38:53.522Z,53.80
2023-03-04T05:41:25.187Z,50.20
2023-03-04T05:43:56.721Z,55.30
2023-03-04T05:46:28.312Z,53.20
2023-03-04T05:48:58.907Z,48.40
2023-03-04T05:51:30.354Z,49.00
2023-03-04T05:54:00.879Z,48.60
2023-03-04T05:56:34.082Z,54.20
2023-03-04T05:59:04.601Z,47.90
2023-03-04T06:01:36.056Z,46.50
2023-03-04T06:04:06.980Z,48.10
2023-03-04T06:06:38.230Z,47.40
2023-03-04T06:09:09.124Z,49.90
2023-03-04T06:11:40.620Z,48.80
2023-03-04T06:14:11.284Z,45.50
2023-03-04T06:16:43.016Z,47.10
2023-03-04T06:19:13.674Z,45.60
2023-03-04T06:21:44.647Z,43.40
2023-03-04T06:24:15.226Z,43.10
2023-03-04T06:26:46.566Z,44.90
2023-03-04T06:29:17.191Z,47.10
2023-03-04T06:31:48.791Z,45.20
2023-03-04T06:34:19.554Z,44.70
2023-03-04T06:36:51.028Z,51.70
2023-03-04T06:39:21.658Z,50.80
2023-03-04T06:41:52.848Z,49.60
2023-03-04T06:44:23.324Z,52.20
2023-03-04T06:46:55.052Z,52.20
2023-03-04T06:49:25.816Z,50.00
2023-03-04T06:51:56.957Z,52.70
2023-03-04T06:54:27.795Z,53.70
2023-03-04T06:56:58.941Z,59.40
2023-03-04T06:59:29.463Z,56.60
2023-03-04T07:02:00.915Z,59.70
2023-03-04T07:04:31.762Z,57.20
2023-03-04T07:07:03.354Z,60.00
2023-03-04T07:09:34.250Z,54.10
2023-03-04T07:12:06.060Z,49.30
2023-03-04T07:14:36.653Z,53.90
2023-03-04T07:17:08.011Z,57.10
2023-03-04T07:19:38.552Z,57.70
2023-03-04T07:22:09.727Z,53.90
2023-03-04T07:24:40.386Z,53.00
2023-03-04T07:27:11.592Z,60.60
2023-03-04T07:29:42.091Z,58.50
2023-03-04T07:32:13.576Z,62.80
2023-03-04T07:34:44.160Z,54.80
2023-03-04T07:37:15.992Z,55.70
2023-03-04T07:39:46.629Z,59.20
2023-03-04T07:42:18.000Z,49.80
2023-03-04T07:44:49.238Z,50.60
2023-03-04T07:47:20.615Z,58.20
2023-03-04T07:49:51.040Z,67.70
2023-03-04T07:52:22.645Z,71.80
2023-03-04T07:54:53.210Z,63.90
2023-03-04T07:57:24.747Z,61.60
2023-03-04T07:59:55.228Z,68.10
2023-03-04T08:02:26.731Z,55.30
2023-03-04T08:04:57.437Z,69.80
2023-03-04T08:07:29.091Z,70.90
2023-03-04T08:09:59.928Z,72.20
2023-03-04T08:12:31.582Z,62.40
2023-03-04T08:15:02.272Z,67.40
2023-03-04T08:17:33.505Z,64.80
2023-03-04T08:20:04.525Z,66.90
2023-03-04T08:22:36.616Z,52.70
2023-03-04T08:25:07.703Z,65.10
2023-03-04T08:27:39.274Z,63.10
2023-03-04T08:30:13.166Z,68.70
2023-03-04T08:32:45.391Z,76.80
2023-03-04T08:35:15.958Z,73.90
2023-03-04T08:37:47.689Z,77.40
2023-03-04T08:40:18.360Z,73.90
2023-03-04T08:42:49.869Z,72.50
2023-03-04T08:45:20.445Z,73.00
2023-03-04T08:47:52.443Z,63.80
2023-03-04T08:50:23.130Z,71.90
2023-03-04T08:52:54.612Z,69.90
2023-03-04T08:55:25.460Z,61.30
2023-03-04T08:57:56.927Z,71.00
2023-03-04T09:00:27.511Z,64.30
2023-03-04T09:02:59.112Z,61.80
2023-03-04T09:05:29.785Z,69.90
2023-03-04T09:08:01.042Z,67.10
2023-03-04T09:10:32.012Z,63.50
2023-03-04T09:13:03.741Z,60.30
2023-03-04T09:15:36.276Z,60.90
2023-03-04T09:18:07.696Z,57.40
2023-03-04T09:20:38.186Z,56.30
2023-03-04T09:23:10.747Z,66.00
2023-03-04T09:25:42.015Z,55.20
2023-03-04T09:28:14.288Z,54.40
2023-03-04T09:30:45.211Z,60.00
2023-03-04T09:33:17.278Z,46.30
2023-03-04T09:35:49.220Z,57.80
2023-03-04T09:38:20.776Z,51.80
2023-03-04T09:40:51.731Z,45.40
2023-03-04T09:43:28.033Z,54.60
2023-03-04T09:46:00.233Z,48.20
2023-03-04T09:48:35.630Z,54.40
2023-03-04T09:51:16.957Z,53.70
2023-03-04T09:53:51.053Z,55.80
2023-03-04T09:56:21.518Z,53.70
2023-03-04T09:58:57.726Z,46.60
2023-03-04T10:01:31.196Z,51.50
2023-03-04T10:04:05.216Z,48.60
2023-03-04T10:06:36.053Z,56.60
2023-03-04T10:09:11.457Z,45.30
2023-03-04T10:11:43.953Z,52.50
2023-03-04T10:14:34.456Z,48.20
2023-03-04T10:17:08.322Z,55.70
2023-03-04T10:19:50.744Z,56.70
2023-03-04T10:22:25.371Z,53.30
2023-03-04T10:24:58.192Z,49.40
2023-03-04T10:27:30.349Z,51.50
2023-03-04T10:30:02.174Z,59.70
2023-03-04T10:32:32.714Z,62.10
2023-03-04T10:35:05.074Z,54.10
2023-03-04T10:37:46.504Z,60.70
2023-03-04T10:40:22.409Z,48.60
2023-03-04T10:42:53.248Z,61.70
2023-03-04T10:45:25.923Z,60.40
2023-03-04T10:47:57.167Z,61.20
2023-03-04T10:50:29.840Z,61.80
2023-03-04T10:53:00.468Z,66.10
2023-03-04T10:55:43.446Z,69.20
2023-03-04T10:58:15.011Z,58.90
2023-03-04T11:00:50.005Z,48.00
2023-03-04T11:03:31.044Z,57.80
2023-03-04T11:06:18.079Z,47.50
2023-03-04T11:08:54.228Z,62.30
2023-03-04T11:11:31.865Z,61.00
2023-03-04T11:14:03.173Z,59.30
2023-03-04T11:16:35.401Z,59.40
2023-03-04T11:19:07.913Z,61.10
2023-03-04T11:21:41.165Z,61.50
2023-03-04T11:24:28.401Z,47.60
2023-03-04T11:27:04.618Z,59.60
2023-03-04T11:29:38.266Z,64.10
2023-03-04T11:32:13.229Z,61.40
2023-03-04T11:34:48.462Z,64.50
2023-03-04T11:37:24.105Z,56.30
2023-03-04T11:39:56.764Z,63.20
2023-03-04T11:42:31.776Z,56.40
2023-03-04T11:45:02.872Z,52.20
2023-03-04T11:47:49.918Z,51.60
2023-03-04T11:50:30.142Z,45.10
2023-03-04T11:53:14.404Z,51.20
2023-03-04T11:55:48.658Z,53.50
2023-03-04T11:58:37.362Z,51.20
2023-03-04T12:01:09.449Z,51.10
2023-03-04T12:03:52.474Z,52.50
2023-03-04T12:06:33.168Z,53.00
2023-03-04T12:09:12.413Z,54.40
2023-03-04T12:11:47.123Z,52.40
2023-03-04T12:14:30.322Z,48.30
2023-03-04T12:17:20.591Z,49.20
2023-03-04T12:20:08.751Z,48.00
2023-03-04T12:22:44.699Z,48.10
2023-03-04T12:25:32.340Z,44.10
2023-03-04T12:28:10.537Z,47.30
2023-03-04T12:30:47.364Z,43.90
2023-03-04T12:33:23.422Z,45.60
2023-03-04T12:36:02.467Z,35.70
2023-03-04T12:38:49.306Z,43.90
2023-03-04T12:41:27.170Z,46.10
2023-03-04T12:44:01.518Z,50.00
2023-03-04T12:46:42.290Z,39.70
2023-03-04T12:49:25.820Z,48.30
2023-03-04T12:52:03.233Z,44.10
2023-03-04T12:54:36.441Z,42.80
2023-03-04T12:59:38.825Z,45.30
2023-03-04T13:02:22.277Z,41.60
2023-03-04T13:04:56.011Z,34.10
2023-03-04T13:07:35.464Z,40.40
2023-03-04T13:10:09.678Z,46.80
2023-03-04T13:12:50.961Z,41.10
2023-03-04T13:15:35.868Z,42.70
2023-03-04T13:18:28.121Z,35.60
2023-03-04T13:21:09.287Z,38.90
2023-03-04T13:23:40.531Z,39.90
2023-03-04T13:26:18.470Z,39.00
2023-03-04T13:28:53.831Z,42.90
2023-03-04T13:31:28.406Z,37.70
2023-03-04T13:34:03.292Z,39.90
2023-03-04T13:36:50.503Z,39.30
2023-03-04T13:39:29.283Z,41.10
2023-03-04T13:42:00.563Z,35.50
2023-03-04T13:45:00.586Z,40.10
2023-03-04T13:47:44.920Z,36.90
2023-03-04T13:50:26.504Z,35.40
2023-03-04T13:53:00.498Z,38.10
2023-03-04T13:55:37.368Z,39.20
2023-03-04T13:58:24.833Z,36.20
2023-03-04T14:00:56.736Z,38.80
2023-03-04T14:03:28.670Z,37.10
2023-03-04T14:06:12.951Z,32.90
2023-03-04T14:08:43.612Z,37.40
2023-03-04T14:11:18.638Z,38.00
2023-03-04T14:13:49.971Z,38.00
2023-03-04T14:16:22.800Z,36.20
2023-03-04T14:19:00.300Z,36.70
2023-03-04T14:21:32.255Z,35.40
2023-03-04T14:24:08.093Z,30.00
2023-03-04T14:26:40.180Z,34.50
2023-03-04T14:29:23.437Z,32.40
2023-03-04T14:31:55.531Z,36.50
2023-03-04T14:34:29.992Z,37.60
2023-03-04T14:37:01.713Z,29.00
2023-03-04T14:39:35.982Z,33.20
2023-03-04T14:42:11.006Z,37.60
2023-03-04T14:44:45.946Z,33.40
2023-03-04T14:47:20.248Z,36.20
2023-03-04T14:49:51.420Z,35.50
2023-03-04T14:52:35.026Z,37.20
2023-03-04T14:55:18.785Z,35.70
2023-03-04T14:57:51.775Z,37.30
2023-03-04T15:00:30.366Z,34.00
2023-03-04T15:03:03.230Z,34.40
2023-03-04T15:05:34.935Z,35.90
2023-03-04T15:08:07.177Z,33.10
2023-03-04T15:10:38.737Z,34.30
2023-03-04T15:13:10.946Z,37.00
2023-03-04T15:15:43.833Z,30.50
2023-03-04T15:18:19.836Z,34.00
2023-03-04T15:20:57.995Z,32.50
2023-03-04T15:23:29.744Z,34.10
2023-03-04T15:26:01.987Z,34.70
2023-03-04T15:28:34.548Z,29.30
2023-03-04T15:31:06.272Z,32.70
2023-03-04T15:33:39.709Z,35.20
2023-03-04T15:36:13.975Z,32.40
2023-03-04T15:38:47.939Z,34.30
2023-03-04T15:41:19.360Z,31.50
2023-03-04T15:43:50.502Z,33.40
2023-03-04T15:46:21.405Z,28.30
2023-03-04T15:48:52.394Z,35.10
2023-03-04T15:51:24.007Z,30.00
2023-03-04T15:53:58.511Z,31.20
2023-03-04T15:56:30.436Z,33.00
2023-03-04T15:59:04.328Z,30.90
2023-03-04T16:01:35.867Z,34.80
2023-03-04T16:04:06.844Z,31.60
2023-03-04T16:06:38.059Z,35.20
2023-03-04T16:09:14.679Z,30.90
2023-03-04T16:11:47.713Z,30.70
2023-03-04T16:14:18.923Z,31.80
2023-03-04T16:16:50.619Z,30.60
2023-03-04T16:19:21.662Z,28.50
2023-03-04T16:21:52.645Z,28.90
2023-03-04T16:24:23.453Z,32.70
2023-03-04T16:26:54.270Z,30.00
2023-03-04T16:29:25.407Z,29.60
2023-03-04T16:31:56.615Z,28.70
2023-03-04T16:34:27.915Z,30.00
2023-03-04T16:36:58.722Z,28.50
2023-03-04T16:39:30.209Z,30.90
2023-03-04T16:42:03.714Z,29.90
2023-03-04T16:47:05.657Z,24.60
2023-03-04T16:49:36.906Z,29.20
2023-03-04T16:52:08.543Z,26.80
2023-03-04T16:54:39.820Z,33.10
2023-03-04T16:57:13.024Z,27.30
2023-03-04T17:02:14.979Z,31.20
2023-03-04T17:04:46.944Z,29.40
2023-03-04T17:07:18.464Z,32.60
2023-03-04T17:09:50.965Z,27.70
2023-03-04T17:12:22.006Z,22.70
2023-03-04T17:14:53.047Z,30.80
2023-03-04T17:17:26.072Z,28.20
2023-03-04T17:19:57.117Z,27.50
2023-03-04T17:22:27.937Z,28.40
2023-03-04T17:24:59.152Z,30.40
2023-03-04T17:27:31.382Z,28.80
2023-03-04T17:30:03.176Z,29.20
2023-03-04T17:32:34.058Z,27.50
2023-03-04T17:35:06.168Z,29.40
2023-03-04T17:37:37.636Z,29.80
2023-03-04T17:40:11.636Z,26.70
2023-03-04T17:42:43.023Z,28.30
2023-03-04T17:45:14.587Z,30.50
2023-03-04T17:47:45.326Z,30.30
2023-03-04T17:50:16.425Z,27.20
2023-03-04T17:52:47.460Z,29.10
2023-03-04T17:55:18.803Z,27.30
2023-03-04T17:57:53.003Z,30.80
2023-03-04T18:00:24.836Z,27.40
2023-03-04T18:02:55.867Z,27.80
2023-03-04T18:05:27.174Z,28.70
2023-03-04T18:07:58.008Z,26.60
2023-03-04T18:10:29.167Z,28.80
2023-03-04T18:13:00.336Z,30.00
2023-03-04T18:15:32.208Z,27.70
2023-03-04T18:18:03.036Z,26.40
2023-03-04T18:20:34.777Z,25.10
2023-03-04T18:23:05.798Z,28.20
2023-03-04T18:25:36.777Z,29.70
2023-03-04T18:28:07.655Z,30.80
2023-03-04T18:30:39.557Z,30.30
2023-03-04T18:33:10.258Z,26.80
2023-03-04T18:35:41.509Z,33.20
2023-03-04T18:38:12.426Z,30.20
2023-03-04T18:40:44.907Z,30.00
2023-03-04T18:43:15.585Z,27.90
2023-03-04T18:45:47.859Z,29.40
2023-03-04T18:48:18.753Z,33.10
2023-03-04T18:50:52.557Z,28.90
2023-03-04T18:53:24.409Z,30.30
2023-03-04T18:55:57.294Z,29.80
2023-03-04T18:58:28.637Z,26.00
2023-03-04T19:01:01.251Z,27.40
2023-03-04T19:03:34.568Z,33.20
2023-03-04T19:08:35.709Z,23.00
2023-03-04T19:11:07.121Z,34.50
2023-03-04T19:13:38.060Z,33.60
2023-03-04T19:16:09.638Z,31.20
2023-03-04T19:18:40.653Z,32.60
2023-03-04T19:21:11.830Z,32.50
2023-03-04T19:23:43.246Z,33.50
2023-03-04T19:26:16.540Z,33.00
2023-03-04T19:28:48.020Z,35.30
2023-03-04T19:31:18.930Z,27.60
2023-03-04T19:45:56.101Z,31.00
2023-03-04T19:48:27.070Z,31.10
2023-03-04T19:50:57.834Z,29.40
2023-03-04T19:53:28.944Z,33.20
2023-03-04T19:56:00.051Z,32.00
2023-03-04T19:58:31.223Z,34.10
2023-03-04T20:01:02.631Z,35.10
2023-03-04T20:03:34.060Z,33.60
2023-03-04T20:06:05.634Z,33.00
2023-03-04T20:08:38.510Z,34.70
2023-03-04T20:11:12.870Z,34.50
2023-03-04T20:13:44.017Z,33.30
2023-03-04T20:16:15.277Z,36.80
2023-03-04T20:18:46.299Z,35.60
2023-03-04T20:21:17.235Z,35.10
2023-03-04T20:23:48.779Z,35.50
2023-03-04T20:26:19.927Z,36.30
2023-03-04T20:28:53.940Z,34.40
2023-03-04T20:31:25.664Z,32.10
2023-03-04T20:33:57.243Z,33.40
2023-03-04T20:36:28.737Z,35.40
2023-03-04T20:39:02.842Z,37.30
2023-03-04T20:41:45.218Z,34.90
2023-03-04T20:44:16.674Z,30.30
2023-03-04T20:46:47.940Z,32.00
2023-03-04T20:49:22.637Z,33.30
2023-03-04T20:51:54.135Z,35.00
2023-03-04T20:54:25.389Z,33.90
2023-03-04T20:56:56.280Z,30.70
2023-03-04T20:59:27.741Z,35.90
2023-03-04T21:02:00.254Z,29.00
2023-03-04T21:04:33.580Z,19.90
2023-03-04T21:07:04.634Z,22.10
2023-03-04T21:09:35.766Z,20.40
2023-03-04T21:12:07.476Z,23.70
2023-03-04T21:14:38.668Z,24.20
2023-03-04T21:17:09.295Z,24.80
2023-03-04T21:19:42.314Z,21.00
2023-03-04T21:22:14.694Z,29.10
2023-03-04T21:24:46.522Z,30.80
2023-03-04T21:27:18.321Z,24.90
2023-03-04T21:29:50.350Z,33.40
2023-03-04T21:32:25.427Z,25.70
2023-03-04T21:34:57.177Z,15.70
2023-03-04T21:37:27.701Z,16.50
2023-03-04T21:40:01.360Z,13.40
2023-03-04T21:42:32.223Z,11.20
2023-03-04T21:45:03.678Z,10.00
2023-03-04T21:47:35.423Z,8.90
2023-03-04T21:50:07.409Z,8.10
2023-03-04T21:52:38.146Z,11.10
2023-03-04T21:55:10.383Z,8.30
2023-03-04T21:57:41.128Z,10.60
2023-03-04T22:00:14.473Z,8.70
2023-03-04T22:02:45.297Z,8.30
2023-03-04T22:05:19.010Z,10.90
2023-03-04T22:07:50.177Z,10.00
2023-03-04T22:10:21.668Z,7.00
2023-03-04T22:12:53.426Z,9.60
2023-03-04T22:15:24.984Z,9.50
2023-03-04T22:17:55.727Z,10.10
2023-03-04T22:20:26.900Z,8.70
2023-03-04T22:22:57.497Z,8.90
2023-03-04T22:25:28.773Z,9.40
2023-03-04T22:27:59.469Z,7.40
2023-03-04T22:30:31.438Z,8.20
2023-03-04T22:33:02.276Z,8.50
2023-03-04T22:35:33.659Z,7.50
2023-03-04T22:38:04.452Z,10.20
2023-03-04T22:40:35.788Z,8.30
2023-03-04T22:43:06.528Z,9.50
2023-03-04T22:45:38.519Z,8.40
2023-03-04T22:48:10.275Z,8.60
2023-03-04T22:50:41.703Z,8.50
2023-03-04T22:53:12.243Z,12.90
2023-03-04T22:55:43.463Z,8.30
2023-03-04T22:58:14.209Z,11.00
2023-03-04T23:00:45.370Z,7.30
2023-03-04T23:03:16.147Z,10.00
2023-03-04T23:05:47.530Z,8.80
2023-03-04T23:08:18.300Z,10.00
2023-03-04T23:10:49.293Z,14.50
2023-03-04T23:13:20.027Z,9.30
2023-03-04T23:15:51.890Z,10.30
2023-03-04T23:18:22.740Z,14.10
2023-03-04T23:20:54.072Z,9.80
2023-03-04T23:23:25.211Z,9.80
2023-03-04T23:25:56.357Z,13.50
2023-03-04T23:28:27.093Z,11.70
2023-03-04T23:30:58.455Z,12.80
2023-03-04T23:33:29.071Z,13.20
2023-03-04T23:36:00.356Z,11.30
2023-03-04T23:38:31.044Z,15.00
2023-03-04T23:41:02.100Z,12.40
2023-03-04T23:43:33.646Z,15.40
2023-03-04T23:46:05.106Z,11.90
2023-03-04T23:48:36.456Z,12.30
2023-03-04T23:51:08.360Z,11.00
2023-03-04T23:53:39.752Z,12.80
2023-03-04T23:56:11.230Z,12.00
2023-03-04T23:58:42.982Z,13.70
